createdAt,value
2023-03-02T00:01:51.264Z,68.52
2023-03-02T00:04:40.779Z,68.47
2023-03-02T00:07:10.606Z,68.49
2023-03-02T00:09:41.194Z,68.58
2023-03-02T00:12:09.254Z,68.60
2023-03-02T00:14:40.902Z,68.59
2023-03-02T00:17:10.750Z,68.66
2023-03-02T00:19:39.180Z,68.70
2023-03-02T00:22:08.251Z,68.68
2023-03-02T00:24:37.628Z,68.76
2023-03-02T00:27:05.594Z,68.84
2023-03-02T00:29:35.624Z,68.80
2023-03-02T00:32:06.917Z,68.73
2023-03-02T00:34:35.157Z,68.78
2023-03-02T00:37:03.197Z,68.81
2023-03-02T00:39:31.213Z,68.86
2023-03-02T00:41:59.281Z,68.93
2023-03-02T00:44:27.361Z,69.01
2023-03-02T00:46:55.528Z,68.92
2023-03-02T00:49:25.891Z,68.93
2023-03-02T00:51:57.352Z,68.96
2023-03-02T00:54:25.418Z,69.07
2023-03-02T00:56:53.579Z,69.05
2023-03-02T00:59:28.047Z,69.08
2023-03-02T01:02:21.846Z,69.02
2023-03-02T01:04:50.496Z,68.96
2023-03-02T01:07:20.933Z,69.11
2023-03-02T01:09:49.026Z,69.18
2023-03-02T01:12:22.522Z,69.19
2023-03-02T01:14:51.077Z,69.25
2023-03-02T01:17:22.261Z,69.21
2023-03-02T01:19:52.821Z,69.25
2023-03-02T01:22:22.014Z,69.27
2023-03-02T01:24:52.094Z,69.36
2023-03-02T01:27:20.499Z,69.46
2023-03-02T01:29:48.504Z,69.63
2023-03-02T01:32:16.625Z,69.46
2023-03-02T01:34:44.862Z,69.17
2023-03-02T01:37:14.728Z,69.16
2023-03-02T01:39:43.798Z,69.20
2023-03-02T01:42:12.445Z,69.37
2023-03-02T01:44:46.495Z,69.52
2023-03-02T01:47:25.534Z,69.44
2023-03-02T01:50:22.521Z,69.35
2023-03-02T01:52:53.289Z,69.34
2023-03-02T01:55:24.913Z,69.53
2023-03-02T01:57:53.681Z,69.48
2023-03-02T02:00:30.361Z,69.49
2023-03-02T02:03:09.073Z,69.49
2023-03-02T02:05:41.165Z,69.53
2023-03-02T02:08:09.296Z,69.59
2023-03-02T02:10:37.476Z,69.57
2023-03-02T02:13:10.903Z,69.58
2023-03-02T02:15:39.159Z,69.81
2023-03-02T02:18:08.042Z,69.70
2023-03-02T02:20:42.637Z,69.69
2023-03-02T02:23:28.837Z,69.69
2023-03-02T02:26:07.968Z,69.66
2023-03-02T02:28:39.776Z,69.74
2023-03-02T02:31:20.787Z,69.76
2023-03-02T02:34:01.305Z,69.65
2023-03-02T02:36:35.087Z,69.53
2023-03-02T02:39:07.162Z,69.65
2023-03-02T02:41:37.667Z,69.64
2023-03-02T02:44:09.920Z,69.63
2023-03-02T02:46:38.413Z,69.71
2023-03-02T02:49:38.286Z,69.59
2023-03-02T02:52:07.057Z,69.39
2023-03-02T02:54:35.074Z,69.42
2023-03-02T02:57:03.534Z,69.58
2023-03-02T02:59:33.780Z,69.67
2023-03-02T03:02:02.156Z,69.76
2023-03-02T03:04:31.319Z,69.64
2023-03-02T03:07:02.166Z,69.47
2023-03-02T03:09:30.718Z,69.55
2023-03-02T03:12:13.015Z,69.66
2023-03-02T03:14:41.586Z,69.75
2023-03-02T03:17:13.381Z,69.77
2023-03-02T03:19:52.579Z,69.63
2023-03-02T03:22:21.632Z,69.63
2023-03-02T03:24:50.445Z,69.54
2023-03-02T03:27:19.763Z,69.57
2023-03-02T03:29:51.374Z,69.61
2023-03-02T03:32:21.546Z,69.61
2023-03-02T03:34:51.761Z,69.47
2023-03-02T03:37:27.024Z,69.31
2023-03-02T03:39:55.435Z,69.45
2023-03-02T03:42:24.246Z,69.54
2023-03-02T03:44:53.117Z,69.75
2023-03-02T03:47:22.712Z,69.85
2023-03-02T03:49:51.094Z,69.74
2023-03-02T03:52:30.561Z,69.73
2023-03-02T03:55:05.670Z,69.71
2023-03-02T03:57:33.998Z,69.77
2023-03-02T04:00:06.347Z,69.89
2023-03-02T04:02:42.868Z,69.89
2023-03-02T04:05:15.891Z,69.84
2023-03-02T04:07:45.178Z,69.73
2023-03-02T04:10:13.506Z,69.85
2023-03-02T04:12:49.133Z,69.88
2023-03-02T04:15:17.593Z,69.85
2023-03-02T04:17:47.292Z,69.98
2023-03-02T04:20:20.449Z,69.90
2023-03-02T04:22:52.565Z,69.75
2023-03-02T04:25:26.279Z,69.67
2023-03-02T04:27:57.930Z,69.78
2023-03-02T04:30:29.984Z,70.00
2023-03-02T04:32:58.106Z,70.09
2023-03-02T04:35:28.703Z,70.06
2023-03-02T04:37:57.388Z,70.01
2023-03-02T04:40:25.697Z,69.96
2023-03-02T04:42:54.197Z,69.92
2023-03-02T04:45:22.251Z,69.97
2023-03-02T04:47:54.436Z,70.02
2023-03-02T04:50:26.456Z,70.02
2023-03-02T04:52:55.301Z,70.06
2023-03-02T04:55:24.966Z,70.16
2023-03-02T04:57:53.265Z,70.26
2023-03-02T05:00:21.831Z,70.39
2023-03-02T05:02:50.139Z,70.50
2023-03-02T05:05:20.540Z,70.52
2023-03-02T05:07:49.317Z,70.42
2023-03-02T05:10:20.345Z,70.40
2023-03-02T05:12:58.352Z,70.33
2023-03-02T05:15:30.471Z,70.21
2023-03-02T05:17:59.341Z,70.29
2023-03-02T05:20:30.283Z,70.24
2023-03-02T05:23:02.274Z,70.18
2023-03-02T05:25:37.806Z,70.25
2023-03-02T05:28:06.933Z,70.34
2023-03-02T05:30:37.909Z,70.41
2023-03-02T05:33:06.217Z,70.53
2023-03-02T05:35:34.929Z,70.42
2023-03-02T05:39:15.145Z,70.30
2023-03-02T05:41:44.167Z,70.44
2023-03-02T05:44:12.731Z,70.65
2023-03-02T05:46:42.112Z,70.95
2023-03-02T05:49:10.819Z,71.09
2023-03-02T05:51:39.148Z,71.04
2023-03-02T05:54:07.162Z,71.17
2023-03-02T05:56:35.709Z,71.35
2023-03-02T05:59:04.037Z,71.41
2023-03-02T06:01:33.076Z,71.57
2023-03-02T06:04:01.341Z,71.67
2023-03-02T06:06:30.531Z,71.62
2023-03-02T06:08:59.323Z,71.92
2023-03-02T06:11:27.726Z,72.25
2023-03-02T06:13:55.814Z,72.64
2023-03-02T06:16:25.074Z,72.59
2023-03-02T06:18:53.089Z,72.36
2023-03-02T06:21:27.088Z,72.26
2023-03-02T06:23:55.257Z,72.64
2023-03-02T06:26:23.279Z,73.06
2023-03-02T06:28:53.790Z,73.33
2023-03-02T06:31:22.402Z,73.56
2023-03-02T06:33:50.785Z,73.72
2023-03-02T06:36:19.369Z,74.15
2023-03-02T06:38:47.515Z,74.55
2023-03-02T06:41:16.154Z,74.88
2023-03-02T06:43:44.176Z,75.19
2023-03-02T06:46:12.412Z,75.61
2023-03-02T06:48:40.631Z,75.93
2023-03-02T06:51:08.730Z,76.20
2023-03-02T06:53:37.415Z,76.27
2023-03-02T06:56:07.250Z,76.43
2023-03-02T06:58:35.811Z,76.87
2023-03-02T07:01:04.016Z,77.19
2023-03-02T07:03:32.409Z,77.55
2023-03-02T07:06:00.636Z,77.77
2023-03-02T07:08:28.954Z,77.95
2023-03-02T07:10:57.491Z,78.39
2023-03-02T07:13:25.820Z,78.71
2023-03-02T07:15:59.763Z,78.81
2023-03-02T07:18:29.834Z,78.87
2023-03-02T07:20:57.787Z,79.14
2023-03-02T07:23:27.129Z,79.45
2023-03-02T07:25:55.559Z,79.61
2023-03-02T07:28:24.358Z,79.71
2023-03-02T07:30:53.495Z,79.90
2023-03-02T07:33:22.509Z,79.99
2023-03-02T07:35:51.465Z,79.90
2023-03-02T07:38:19.463Z,79.58
2023-03-02T07:40:48.655Z,79.23
2023-03-02T07:43:16.941Z,78.97
2023-03-02T07:45:44.977Z,78.71
2023-03-02T07:48:13.077Z,78.55
2023-03-02T07:50:43.143Z,78.01
2023-03-02T07:53:11.455Z,77.73
2023-03-02T07:55:42.707Z,77.43
2023-03-02T07:58:10.767Z,77.27
2023-03-02T08:00:42.367Z,76.92
2023-03-02T08:03:10.869Z,76.78
2023-03-02T08:05:40.864Z,76.63
2023-03-02T08:08:08.892Z,76.37
2023-03-02T08:10:38.810Z,76.10
2023-03-02T08:13:08.086Z,75.88
2023-03-02T08:15:36.750Z,75.69
2023-03-02T08:18:05.292Z,75.25
2023-03-02T08:20:34.406Z,75.14
2023-03-02T08:23:03.418Z,75.21
2023-03-02T08:25:31.969Z,75.06
2023-03-02T08:28:00.169Z,74.75
2023-03-02T08:30:28.286Z,74.43
2023-03-02T08:32:56.544Z,74.01
2023-03-02T08:35:24.573Z,73.77
2023-03-02T08:37:54.274Z,73.27
2023-03-02T08:40:22.694Z,72.98
2023-03-02T08:42:57.048Z,72.70
2023-03-02T08:45:25.743Z,72.43
2023-03-02T08:47:54.817Z,72.35
2023-03-02T08:50:22.864Z,72.56
2023-03-02T08:52:52.045Z,72.40
2023-03-02T08:55:20.150Z,72.14
2023-03-02T08:57:49.230Z,71.77
2023-03-02T09:00:18.984Z,71.67
2023-03-02T09:02:47.889Z,71.29
2023-03-02T09:05:16.009Z,71.14
2023-03-02T09:07:45.115Z,71.09
2023-03-02T09:10:17.579Z,71.05
2023-03-02T09:12:48.676Z,70.80
2023-03-02T09:15:17.113Z,70.41
2023-03-02T09:17:52.220Z,70.01
2023-03-02T09:20:20.281Z,69.83
2023-03-02T09:22:50.936Z,69.60
2023-03-02T09:25:19.208Z,69.64
2023-03-02T09:27:47.506Z,69.38
2023-03-02T09:30:16.574Z,69.18
2023-03-02T09:32:45.300Z,68.76
2023-03-02T09:35:13.433Z,68.42
2023-03-02T09:37:44.625Z,68.28
2023-03-02T09:40:20.639Z,68.03
2023-03-02T09:43:11.526Z,67.65
2023-03-02T09:46:00.626Z,67.72
2023-03-02T09:48:52.436Z,67.85
2023-03-02T09:51:45.355Z,67.98
2023-03-02T09:54:14.961Z,67.90
2023-03-02T09:56:50.915Z,67.52
2023-03-02T09:59:31.364Z,67.06
2023-03-02T10:02:18.357Z,66.83
2023-03-02T10:04:51.767Z,66.37
2023-03-02T10:07:32.905Z,66.57
2023-03-02T10:10:03.998Z,66.90
2023-03-02T10:12:54.437Z,66.74
2023-03-02T10:15:44.670Z,66.51
2023-03-02T10:18:20.751Z,66.29
2023-03-02T10:20:55.842Z,66.10
2023-03-02T10:23:31.577Z,66.06
2023-03-02T10:26:05.594Z,66.12
2023-03-02T10:28:36.617Z,65.97
2023-03-02T10:31:15.523Z,65.68
2023-03-02T10:33:43.773Z,65.44
2023-03-02T10:36:24.097Z,65.35
2023-03-02T10:38:53.551Z,65.17
2023-03-02T10:41:33.130Z,64.92
2023-03-02T10:44:16.308Z,64.69
2023-03-02T10:46:46.376Z,64.16
2023-03-02T10:49:44.223Z,64.08
2023-03-02T10:52:14.210Z,64.16
2023-03-02T10:54:42.712Z,64.03
2023-03-02T10:57:35.236Z,63.95
2023-03-02T11:00:15.689Z,64.08
2023-03-02T11:02:51.769Z,64.05
2023-03-02T11:05:33.009Z,63.78
2023-03-02T11:08:07.277Z,63.66
2023-03-02T11:10:40.666Z,63.73
2023-03-02T11:13:37.730Z,63.22
2023-03-02T11:16:18.008Z,62.88
2023-03-02T11:18:52.942Z,62.78
2023-03-02T11:21:26.058Z,62.32
2023-03-02T11:24:00.158Z,62.33
2023-03-02T11:26:39.044Z,61.98
2023-03-02T11:29:13.443Z,61.77
2023-03-02T11:31:59.336Z,61.75
2023-03-02T11:34:30.413Z,61.83
2023-03-02T11:37:13.545Z,61.78
2023-03-02T11:40:00.297Z,61.75
2023-03-02T11:42:44.003Z,61.47
2023-03-02T11:45:16.321Z,61.42
2023-03-02T11:48:07.477Z,61.61
2023-03-02T11:50:41.668Z,61.66
2023-03-02T11:53:13.866Z,61.61
2023-03-02T11:55:48.735Z,61.72
2023-03-02T11:58:21.683Z,61.87
2023-03-02T12:00:50.098Z,61.83
2023-03-02T12:03:18.105Z,61.87
2023-03-02T12:06:00.378Z,61.85
2023-03-02T12:08:32.410Z,61.62
2023-03-02T12:11:03.668Z,61.56
2023-03-02T12:13:38.888Z,61.25
2023-03-02T12:16:38.280Z,61.10
2023-03-02T12:19:12.719Z,60.81
2023-03-02T12:22:05.911Z,60.73
2023-03-02T12:24:37.524Z,60.43
2023-03-02T12:27:12.995Z,60.48
2023-03-02T12:29:50.904Z,60.78
2023-03-02T12:32:19.012Z,60.69
2023-03-02T12:34:56.732Z,60.65
2023-03-02T12:37:28.138Z,60.65
2023-03-02T12:40:15.295Z,60.58
2023-03-02T12:42:50.130Z,60.21
2023-03-02T12:45:46.425Z,60.16
2023-03-02T12:48:42.802Z,60.03
2023-03-02T12:51:22.771Z,60.18
2023-03-02T12:54:02.552Z,59.94
2023-03-02T12:56:31.398Z,60.07
2023-03-02T12:58:59.753Z,59.75
2023-03-02T13:01:30.216Z,59.68
2023-03-02T13:03:58.451Z,59.60
2023-03-02T13:06:28.040Z,59.68
2023-03-02T13:08:58.403Z,59.83
2023-03-02T13:11:34.278Z,59.75
2023-03-02T13:14:05.601Z,59.62
2023-03-02T13:16:36.897Z,59.45
2023-03-02T13:19:09.963Z,59.50
2023-03-02T13:21:39.266Z,59.33
2023-03-02T13:24:25.427Z,59.42
2023-03-02T13:27:00.814Z,59.51
2023-03-02T13:29:31.865Z,59.35
2023-03-02T13:32:39.203Z,59.14
2023-03-02T13:35:21.115Z,59.10
2023-03-02T13:37:55.935Z,59.29
2023-03-02T13:40:27.047Z,59.41
2023-03-02T13:42:55.504Z,59.33
2023-03-02T13:45:30.822Z,58.98
2023-03-02T13:48:00.055Z,59.12
2023-03-02T13:50:30.043Z,59.03
2023-03-02T13:53:00.735Z,58.75
2023-03-02T13:55:28.998Z,58.80
2023-03-02T13:57:57.075Z,58.76
2023-03-02T14:00:32.657Z,58.60
2023-03-02T14:03:00.986Z,58.62
2023-03-02T14:05:35.183Z,58.55
2023-03-02T14:08:03.964Z,58.48
2023-03-02T14:10:32.045Z,58.61
2023-03-02T14:13:05.600Z,58.69
2023-03-02T14:15:37.346Z,58.64
2023-03-02T14:18:12.958Z,58.47
2023-03-02T14:20:40.981Z,58.57
2023-03-02T14:23:09.042Z,58.23
2023-03-02T14:25:38.260Z,58.17
2023-03-02T14:28:06.330Z,57.99
2023-03-02T14:30:37.750Z,57.66
2023-03-02T14:33:06.237Z,57.66
2023-03-02T14:35:34.966Z,57.75
2023-03-02T14:38:03.191Z,57.90
2023-03-02T14:40:31.453Z,58.17
2023-03-02T14:42:59.495Z,58.00
2023-03-02T14:45:30.535Z,57.93
2023-03-02T14:48:00.551Z,57.93
2023-03-02T14:50:29.221Z,57.90
2023-03-02T14:52:58.147Z,58.10
2023-03-02T14:55:30.710Z,58.16
2023-03-02T14:58:00.302Z,58.12
2023-03-02T15:00:28.898Z,58.34
2023-03-02T15:02:57.066Z,58.18
2023-03-02T15:05:25.171Z,58.12
2023-03-02T15:08:00.191Z,58.08
2023-03-02T15:10:28.635Z,58.28
2023-03-02T15:12:56.668Z,58.39
2023-03-02T15:15:26.409Z,58.60
2023-03-02T15:17:54.631Z,58.69
2023-03-02T15:20:23.380Z,58.74
2023-03-02T15:22:51.586Z,58.67
2023-03-02T15:25:19.681Z,58.75
2023-03-02T15:27:48.768Z,58.82
2023-03-02T15:30:17.837Z,58.72
2023-03-02T15:32:46.234Z,58.86
2023-03-02T15:35:14.406Z,59.09
2023-03-02T15:37:44.971Z,59.14
2023-03-02T15:40:13.508Z,58.80
2023-03-02T15:42:41.760Z,58.66
2023-03-02T15:45:10.944Z,58.69
2023-03-02T15:47:39.519Z,58.79
2023-03-02T15:50:09.374Z,59.01
2023-03-02T15:52:37.737Z,58.99
2023-03-02T15:55:05.888Z,59.03
2023-03-02T15:57:39.268Z,58.96
2023-03-02T16:00:13.591Z,59.20
2023-03-02T16:02:43.349Z,59.32
2023-03-02T16:05:14.015Z,59.41
2023-03-02T16:07:43.424Z,59.31
2023-03-02T16:10:15.426Z,59.47
2023-03-02T16:12:43.614Z,59.58
2023-03-02T16:15:14.798Z,59.57
2023-03-02T16:17:43.924Z,59.61
2023-03-02T16:20:12.748Z,59.69
2023-03-02T16:22:40.773Z,59.86
2023-03-02T16:25:09.095Z,59.73
2023-03-02T16:27:37.606Z,59.84
2023-03-02T16:30:10.790Z,59.91
2023-03-02T16:32:38.855Z,60.01
2023-03-02T16:35:07.338Z,59.94
2023-03-02T16:37:36.805Z,59.99
2023-03-02T16:40:05.452Z,60.14
2023-03-02T16:42:33.906Z,60.22
2023-03-02T16:45:02.028Z,60.33
2023-03-02T16:47:30.832Z,60.28
2023-03-02T16:49:58.845Z,60.48
2023-03-02T16:52:26.980Z,60.59
2023-03-02T16:54:55.764Z,60.64
2023-03-02T16:57:23.806Z,60.72
2023-03-02T16:59:52.288Z,60.86
2023-03-02T17:02:20.350Z,61.07
2023-03-02T17:04:48.454Z,61.18
2023-03-02T17:07:16.850Z,61.43
2023-03-02T17:09:44.934Z,61.46
2023-03-02T17:12:12.989Z,61.68
2023-03-02T17:14:41.486Z,61.65
2023-03-02T17:17:11.156Z,61.59
2023-03-02T17:19:40.240Z,61.64
2023-03-02T17:22:08.500Z,61.86
2023-03-02T17:24:36.772Z,61.86
2023-03-02T17:27:13.066Z,61.83
2023-03-02T17:29:48.926Z,61.78
2023-03-02T17:32:17.717Z,61.98
2023-03-02T17:34:46.359Z,61.94
2023-03-02T17:37:14.603Z,61.81
2023-03-02T17:39:42.942Z,61.91
2023-03-02T17:42:11.626Z,62.02
2023-03-02T17:44:40.337Z,62.13
2023-03-02T17:47:09.987Z,62.10
2023-03-02T17:49:40.517Z,62.10
2023-03-02T17:52:09.916Z,62.20
2023-03-02T17:54:38.336Z,62.34
2023-03-02T17:58:05.674Z,62.51
2023-03-02T18:00:34.603Z,62.33
2023-03-02T18:03:05.891Z,62.26
2023-03-02T18:05:35.890Z,62.41
2023-03-02T18:08:04.124Z,62.49
2023-03-02T18:10:32.885Z,62.49
2023-03-02T18:13:04.568Z,62.53
2023-03-02T18:15:33.621Z,62.44
2023-03-02T18:18:01.684Z,62.52
2023-03-02T18:20:29.986Z,62.60
2023-03-02T18:23:02.988Z,62.72
2023-03-02T18:25:33.017Z,62.67
2023-03-02T18:28:01.595Z,62.58
2023-03-02T18:30:30.471Z,62.66
2023-03-02T18:32:58.532Z,62.69
2023-03-02T18:35:26.593Z,62.80
2023-03-02T18:37:55.199Z,62.91
2023-03-02T18:40:27.657Z,63.12
2023-03-02T18:42:56.399Z,63.13
2023-03-02T18:45:29.400Z,63.14
2023-03-02T18:47:58.006Z,63.21
2023-03-02T18:50:26.567Z,63.33
2023-03-02T18:52:55.176Z,63.27
2023-03-02T18:55:23.998Z,63.42
2023-03-02T18:57:55.063Z,63.48
2023-03-02T19:00:27.680Z,63.53
2023-03-02T19:02:58.151Z,63.51
2023-03-02T19:05:27.213Z,63.53
2023-03-02T19:08:00.304Z,63.61
2023-03-02T19:10:29.056Z,63.74
2023-03-02T19:12:57.162Z,63.74
2023-03-02T19:15:28.202Z,63.66
2023-03-02T19:17:57.413Z,63.65
2023-03-02T19:20:31.662Z,63.84
2023-03-02T19:23:00.217Z,63.90
2023-03-02T19:25:28.879Z,63.86
2023-03-02T19:27:58.315Z,63.84
2023-03-02T19:30:26.926Z,63.89
2023-03-02T19:32:55.230Z,63.96
2023-03-02T19:35:25.704Z,64.13
2023-03-02T19:37:53.816Z,64.01
2023-03-02T19:40:24.782Z,64.10
2023-03-02T19:42:53.267Z,64.07
2023-03-02T19:45:23.697Z,64.06
2023-03-02T19:47:58.891Z,63.97
2023-03-02T19:50:46.835Z,63.85
2023-03-02T19:53:14.969Z,63.98
2023-03-02T19:55:43.623Z,64.12
2023-03-02T19:58:17.627Z,64.15
2023-03-02T20:00:46.191Z,64.20
2023-03-02T20:03:14.466Z,64.35
2023-03-02T20:05:43.215Z,64.35
2023-03-02T20:08:11.486Z,64.46
2023-03-02T20:10:46.389Z,64.49
2023-03-02T20:13:14.799Z,64.65
2023-03-02T20:15:45.537Z,64.60
2023-03-02T20:18:18.982Z,64.56
2023-03-02T20:20:48.578Z,64.62
2023-03-02T20:23:17.658Z,64.60
2023-03-02T20:25:48.243Z,64.57
2023-03-02T20:28:18.826Z,64.67
2023-03-02T20:30:58.212Z,64.73
2023-03-02T20:33:32.119Z,64.88
2023-03-02T20:36:02.300Z,64.93
2023-03-02T20:38:33.724Z,64.82
2023-03-02T20:41:01.814Z,64.99
2023-03-02T20:43:30.052Z,64.96
2023-03-02T20:45:58.862Z,64.90
2023-03-02T20:48:27.477Z,64.99
2023-03-02T20:50:56.157Z,64.98
2023-03-02T20:53:24.184Z,64.91
2023-03-02T20:55:52.269Z,64.78
2023-03-02T20:58:20.585Z,64.92
2023-03-02T21:00:48.966Z,65.05
2023-03-02T21:03:17.328Z,65.16
2023-03-02T21:05:45.922Z,65.27
2023-03-02T21:08:14.962Z,65.37
2023-03-02T21:10:43.298Z,65.36
2023-03-02T21:13:13.481Z,65.41
2023-03-02T21:15:43.183Z,65.52
2023-03-02T21:18:11.893Z,65.62
2023-03-02T21:20:42.007Z,65.27
2023-03-02T21:23:11.248Z,65.48
2023-03-02T21:25:42.226Z,65.69
2023-03-02T21:28:12.562Z,65.78
2023-03-02T21:30:40.671Z,65.95
2023-03-02T21:33:09.038Z,65.86
2023-03-02T21:35:37.284Z,65.52
2023-03-02T21:38:05.816Z,65.53
2023-03-02T21:40:38.525Z,65.80
2023-03-02T21:43:08.500Z,65.96
2023-03-02T21:45:36.980Z,66.16
2023-03-02T21:48:05.910Z,66.09
2023-03-02T21:50:36.126Z,66.06
2023-03-02T21:53:07.780Z,65.87
2023-03-02T21:55:38.121Z,65.99
2023-03-02T21:58:06.364Z,66.10
2023-03-02T22:00:36.395Z,66.01
2023-03-02T22:03:05.532Z,66.09
2023-03-02T22:05:34.652Z,66.13
2023-03-02T22:08:02.963Z,66.24
2023-03-02T22:10:43.247Z,65.83
2023-03-02T22:13:26.390Z,65.94
2023-03-02T22:16:16.163Z,66.10
2023-03-02T22:18:46.882Z,66.24
2023-03-02T22:21:24.596Z,66.40
2023-03-02T22:24:16.710Z,66.30
2023-03-02T22:26:47.206Z,66.02
2023-03-02T22:29:19.466Z,66.02
2023-03-02T22:31:49.598Z,66.12
2023-03-02T22:34:27.048Z,66.29
2023-03-02T22:37:22.324Z,66.31
2023-03-02T22:39:50.996Z,66.36
2023-03-02T22:42:21.372Z,66.45
2023-03-02T22:44:59.734Z,66.55
2023-03-02T22:47:27.883Z,66.73
2023-03-02T22:50:00.710Z,66.56
2023-03-02T22:52:36.351Z,66.58
2023-03-02T22:55:30.616Z,66.56
2023-03-02T22:58:20.065Z,66.51
2023-03-02T23:00:48.726Z,66.54
2023-03-02T23:03:21.947Z,66.64
2023-03-02T23:05:51.959Z,66.70
2023-03-02T23:08:25.175Z,66.77
2023-03-02T23:10:57.755Z,66.73
2023-03-02T23:13:31.486Z,66.65
2023-03-02T23:16:01.063Z,66.76
2023-03-02T23:18:30.376Z,66.69
2023-03-02T23:20:59.430Z,66.46
2023-03-02T23:23:27.644Z,66.59
2023-03-02T23:25:56.368Z,66.53
2023-03-02T23:28:24.365Z,66.65
2023-03-02T23:30:53.386Z,66.72
2023-03-02T23:33:21.457Z,66.82
2023-03-02T23:35:49.516Z,66.73
2023-03-02T23:38:18.235Z,66.73
2023-03-02T23:40:46.612Z,66.65
2023-03-02T23:43:14.927Z,66.51
2023-03-02T23:45:43.401Z,66.50
2023-03-02T23:48:11.841Z,66.52
2023-03-02T23:50:40.408Z,66.60
2023-03-02T23:53:08.648Z,66.73
2023-03-02T23:55:39.630Z,66.96
2023-03-02T23:58:07.895Z,66.69
